createdAt,value
2018-06-25T00:00:12.757Z,1015.92
2018-06-25T00:01:13.922Z,1015.86
2018-06-25T00:02:12.755Z,1015.90
2018-06-25T00:03:15.426Z,1015.89
2018-06-25T00:04:13.361Z,1015.86
2018-06-25T00:05:14.240Z,1015.89
2018-06-25T00:06:13.920Z,1015.86
2018-06-25T00:07:12.740Z,1015.81
2018-06-25T00:08:14.249Z,1015.82
2018-06-25T00:09:13.812Z,1015.80
2018-06-25T00:10:12.729Z,1015.81
2018-06-25T00:11:13.732Z,1015.80
2018-06-25T00:12:13.943Z,1015.79
2018-06-25T00:13:14.423Z,1015.77
2018-06-25T00:14:13.921Z,1015.74
2018-06-25T00:15:13.711Z,1015.78
2018-06-25T00:16:12.852Z,1015.76
2018-06-25T00:17:16.575Z,1015.78
2018-06-25T00:18:13.212Z,1015.80
2018-06-25T00:19:14.423Z,1015.79
2018-06-25T00:20:12.730Z,1015.81
2018-06-25T00:21:13.688Z,1015.84
2018-06-25T00:22:13.911Z,1015.81
2018-06-25T00:23:14.456Z,1015.80
2018-06-25T00:24:13.717Z,1015.77
2018-06-25T00:25:13.312Z,1015.74
2018-06-25T00:26:14.507Z,1015.78
2018-06-25T00:27:14.432Z,1015.78
2018-06-25T00:28:14.419Z,1015.79
2018-06-25T00:29:14.427Z,1015.76
2018-06-25T00:30:13.678Z,1015.73
2018-06-25T00:31:13.363Z,1015.74
2018-06-25T00:32:13.931Z,1015.75
2018-06-25T00:33:14.430Z,1015.72
2018-06-25T00:34:13.731Z,1015.76
2018-06-25T00:35:13.914Z,1015.72
2018-06-25T00:36:13.914Z,1015.74
2018-06-25T00:37:13.929Z,1015.74
2018-06-25T00:38:16.061Z,1015.68
2018-06-25T00:39:12.732Z,1015.71
2018-06-25T00:40:15.583Z,1015.71
2018-06-25T00:41:14.249Z,1015.73
2018-06-25T00:42:13.433Z,1015.73
2018-06-25T00:43:13.913Z,1015.74
2018-06-25T00:44:15.540Z,1015.75
2018-06-25T00:45:13.937Z,1015.72
2018-06-25T00:46:13.931Z,1015.74
2018-06-25T00:47:13.990Z,1015.74
2018-06-25T00:48:14.419Z,1015.68
2018-06-25T00:49:12.655Z,1015.68
2018-06-25T00:50:13.988Z,1015.59
2018-06-25T00:51:13.916Z,1015.60
2018-06-25T00:52:14.251Z,1015.63
2018-06-25T00:53:13.292Z,1015.60
2018-06-25T00:54:13.933Z,1015.65
2018-06-25T00:55:13.933Z,1015.60
2018-06-25T00:56:13.941Z,1015.60
2018-06-25T00:57:13.973Z,1015.59
2018-06-25T00:58:14.421Z,1015.64
2018-06-25T00:59:13.623Z,1015.68
2018-06-25T01:00:13.919Z,1015.72
2018-06-25T01:01:13.938Z,1015.75
2018-06-25T01:02:13.992Z,1015.77
2018-06-25T01:03:14.339Z,1015.79
2018-06-25T01:04:13.345Z,1015.73
2018-06-25T01:05:13.938Z,1015.70
2018-06-25T01:06:13.734Z,1015.68
2018-06-25T01:07:13.936Z,1015.64
2018-06-25T01:08:14.488Z,1015.69
2018-06-25T01:09:13.983Z,1015.69
2018-06-25T01:10:13.920Z,1015.71
2018-06-25T01:11:13.634Z,1015.69
2018-06-25T01:12:14.446Z,1015.69
2018-06-25T01:13:12.652Z,1015.70
2018-06-25T01:14:13.666Z,1015.69
2018-06-25T01:15:13.290Z,1015.71
2018-06-25T01:16:13.438Z,1015.70
2018-06-25T01:17:13.939Z,1015.71
2018-06-25T01:18:14.153Z,1015.72
2018-06-25T01:19:13.424Z,1015.75
2018-06-25T01:20:14.439Z,1015.76
2018-06-25T01:21:15.971Z,1015.76
2018-06-25T01:22:13.439Z,1015.78
2018-06-25T01:23:14.441Z,1015.78
2018-06-25T01:24:13.942Z,1015.76
2018-06-25T01:25:14.273Z,1015.76
2018-06-25T01:26:13.441Z,1015.79
2018-06-25T01:27:13.454Z,1015.79
2018-06-25T01:28:13.186Z,1015.79
2018-06-25T01:29:13.944Z,1015.75
2018-06-25T01:30:13.673Z,1015.71
2018-06-25T01:31:14.443Z,1015.76
2018-06-25T01:32:13.689Z,1015.76
2018-06-25T01:33:13.678Z,1015.72
2018-06-25T01:34:13.630Z,1015.75
2018-06-25T01:35:13.945Z,1015.79
2018-06-25T01:36:13.991Z,1015.74
2018-06-25T01:37:13.434Z,1015.74
2018-06-25T01:38:13.696Z,1015.75
2018-06-25T01:39:13.750Z,1015.77
2018-06-25T01:40:13.951Z,1015.75
2018-06-25T01:41:13.293Z,1015.76
2018-06-25T01:42:14.446Z,1015.78
2018-06-25T01:43:13.449Z,1015.79
2018-06-25T01:44:13.931Z,1015.77
2018-06-25T01:45:13.575Z,1015.76
2018-06-25T01:46:14.495Z,1015.79
2018-06-25T01:47:14.004Z,1015.77
2018-06-25T01:48:13.213Z,1015.77
2018-06-25T01:49:13.980Z,1015.77
2018-06-25T01:50:14.603Z,1015.77
2018-06-25T01:51:13.957Z,1015.81
2018-06-25T01:52:13.202Z,1015.81
2018-06-25T01:53:13.693Z,1015.76
2018-06-25T01:54:14.022Z,1015.74
2018-06-25T01:55:13.961Z,1015.76
2018-06-25T01:56:13.122Z,1015.72
2018-06-25T01:57:14.448Z,1015.68
2018-06-25T01:58:12.545Z,1015.70
2018-06-25T01:59:12.527Z,1015.65
2018-06-25T02:00:13.922Z,1015.63
2018-06-25T02:01:13.537Z,1015.61
2018-06-25T02:02:13.561Z,1015.59
2018-06-25T02:03:13.952Z,1015.60
2018-06-25T02:04:13.730Z,1015.57
2018-06-25T02:05:13.962Z,1015.60
2018-06-25T02:06:13.968Z,1015.56
2018-06-25T02:07:14.447Z,1015.57
2018-06-25T02:08:13.952Z,1015.55
2018-06-25T02:09:13.882Z,1015.58
2018-06-25T02:10:12.519Z,1015.63
2018-06-25T02:11:12.584Z,1015.61
2018-06-25T02:12:13.652Z,1015.63
2018-06-25T02:13:14.042Z,1015.61
2018-06-25T02:14:13.959Z,1015.66
2018-06-25T02:15:13.955Z,1015.61
2018-06-25T02:16:14.225Z,1015.62
2018-06-25T02:17:13.956Z,1015.66
2018-06-25T02:18:13.993Z,1015.70
2018-06-25T02:19:15.957Z,1015.68
2018-06-25T02:20:13.534Z,1015.69
2018-06-25T02:21:16.023Z,1015.67
2018-06-25T02:22:15.459Z,1015.66
2018-06-25T02:23:13.942Z,1015.71
2018-06-25T02:24:13.486Z,1015.71
2018-06-25T02:25:13.440Z,1015.72
2018-06-25T02:26:12.573Z,1015.72
2018-06-25T02:27:13.952Z,1015.74
2018-06-25T02:28:12.492Z,1015.74
2018-06-25T02:29:13.517Z,1015.71
2018-06-25T02:30:12.497Z,1015.70
2018-06-25T02:31:12.560Z,1015.70
2018-06-25T02:32:13.104Z,1015.71
2018-06-25T02:33:13.961Z,1015.72
2018-06-25T02:34:13.464Z,1015.71
2018-06-25T02:35:13.500Z,1015.67
2018-06-25T02:36:13.955Z,1015.68
2018-06-25T02:37:13.462Z,1015.68
2018-06-25T02:38:13.962Z,1015.71
2018-06-25T02:39:13.520Z,1015.71
2018-06-25T02:40:13.448Z,1015.71
2018-06-25T02:41:12.462Z,1015.74
2018-06-25T02:42:13.563Z,1015.72
2018-06-25T02:43:13.507Z,1015.75
2018-06-25T02:44:13.183Z,1015.71
2018-06-25T02:45:12.908Z,1015.77
2018-06-25T02:46:13.860Z,1015.74
2018-06-25T02:47:13.164Z,1015.76
2018-06-25T02:48:13.906Z,1015.69
2018-06-25T02:49:13.672Z,1015.72
2018-06-25T02:50:13.956Z,1015.76
2018-06-25T02:51:13.470Z,1015.80
2018-06-25T02:52:13.483Z,1015.77
2018-06-25T02:53:13.842Z,1015.81
2018-06-25T02:54:13.131Z,1015.82
2018-06-25T02:55:13.615Z,1015.88
2018-06-25T02:56:13.482Z,1015.90
2018-06-25T02:57:13.484Z,1015.92
2018-06-25T02:58:13.950Z,1015.87
2018-06-25T02:59:12.512Z,1015.88
2018-06-25T03:00:13.507Z,1015.86
2018-06-25T03:01:12.507Z,1015.86
2018-06-25T03:02:12.433Z,1015.85
2018-06-25T03:03:13.970Z,1015.86
2018-06-25T03:04:13.689Z,1015.80
2018-06-25T03:05:13.112Z,1015.82
2018-06-25T03:06:13.986Z,1015.84
2018-06-25T03:07:13.455Z,1015.82
2018-06-25T03:08:12.444Z,1015.83
2018-06-25T03:09:14.331Z,1015.82
2018-06-25T03:10:13.490Z,1015.79
2018-06-25T03:11:19.787Z,1015.82
2018-06-25T03:12:12.450Z,1015.80
2018-06-25T03:13:13.756Z,1015.81
2018-06-25T03:14:13.480Z,1015.79
2018-06-25T03:15:13.055Z,1015.78
2018-06-25T03:16:13.071Z,1015.77
2018-06-25T03:17:13.425Z,1015.77
2018-06-25T03:18:12.522Z,1015.79
2018-06-25T03:19:13.196Z,1015.79
2018-06-25T03:20:13.052Z,1015.83
2018-06-25T03:21:13.758Z,1015.77
2018-06-25T03:22:13.473Z,1015.74
2018-06-25T03:23:12.405Z,1015.77
2018-06-25T03:24:13.754Z,1015.76
2018-06-25T03:25:13.410Z,1015.77
2018-06-25T03:26:13.956Z,1015.77
2018-06-25T03:27:13.523Z,1015.77
2018-06-25T03:28:12.420Z,1015.77
2018-06-25T03:29:12.402Z,1015.79
2018-06-25T03:30:13.057Z,1015.75
2018-06-25T03:31:12.380Z,1015.82
2018-06-25T03:32:13.426Z,1015.75
2018-06-25T03:33:12.372Z,1015.80
2018-06-25T03:34:13.477Z,1015.83
2018-06-25T03:35:13.983Z,1015.81
2018-06-25T03:36:14.291Z,1015.84
2018-06-25T03:37:13.523Z,1015.84
2018-06-25T03:38:12.489Z,1015.85
2018-06-25T03:39:12.429Z,1015.83
2018-06-25T03:40:13.017Z,1015.89
2018-06-25T03:41:12.981Z,1015.89
2018-06-25T03:42:12.388Z,1015.85
2018-06-25T03:43:12.414Z,1015.89
2018-06-25T03:44:12.959Z,1015.88
2018-06-25T03:45:13.546Z,1015.89
2018-06-25T03:46:19.746Z,1015.88
2018-06-25T03:47:13.737Z,1015.89
2018-06-25T03:48:12.448Z,1015.90
2018-06-25T03:49:12.406Z,1015.93
2018-06-25T03:50:12.997Z,1015.91
2018-06-25T03:51:13.964Z,1015.89
2018-06-25T03:52:13.965Z,1015.90
2018-06-25T03:53:12.342Z,1015.89
2018-06-25T03:54:13.020Z,1015.92
2018-06-25T03:55:13.004Z,1015.91
2018-06-25T03:56:19.981Z,1015.92
2018-06-25T03:57:12.529Z,1015.96
2018-06-25T03:58:13.121Z,1015.95
2018-06-25T03:59:13.835Z,1015.98
2018-06-25T04:00:12.992Z,1015.95
2018-06-25T04:01:13.974Z,1016.02
2018-06-25T04:02:12.350Z,1015.98
2018-06-25T04:03:13.777Z,1015.96
2018-06-25T04:04:13.504Z,1016.00
2018-06-25T04:05:13.873Z,1015.97
2018-06-25T04:06:12.356Z,1015.99
2018-06-25T04:07:13.734Z,1015.99
2018-06-25T04:08:12.382Z,1016.02
2018-06-25T04:09:15.630Z,1015.99
2018-06-25T04:10:13.981Z,1016.01
2018-06-25T04:11:12.302Z,1016.02
2018-06-25T04:12:12.386Z,1016.03
2018-06-25T04:13:13.469Z,1016.04
2018-06-25T04:14:13.470Z,1016.06
2018-06-25T04:15:13.324Z,1016.07
2018-06-25T04:16:13.795Z,1016.10
2018-06-25T04:17:14.023Z,1016.11
2018-06-25T04:18:13.972Z,1016.08
2018-06-25T04:19:13.403Z,1016.09
2018-06-25T04:20:12.963Z,1016.06
2018-06-25T04:21:12.312Z,1016.05
2018-06-25T04:22:13.074Z,1016.04
2018-06-25T04:23:13.828Z,1016.10
2018-06-25T04:24:13.522Z,1016.07
2018-06-25T04:25:12.266Z,1016.07
2018-06-25T04:26:13.027Z,1016.09
2018-06-25T04:27:12.333Z,1016.08
2018-06-25T04:28:13.982Z,1016.09
2018-06-25T04:29:14.002Z,1016.10
2018-06-25T04:30:13.355Z,1016.09
2018-06-25T04:31:12.265Z,1016.09
2018-06-25T04:32:13.501Z,1016.06
2018-06-25T04:33:12.988Z,1016.10
2018-06-25T04:34:13.807Z,1016.08
2018-06-25T04:35:14.875Z,1016.10
2018-06-25T04:36:13.321Z,1016.13
2018-06-25T04:37:13.476Z,1016.13
2018-06-25T04:38:14.035Z,1016.16
2018-06-25T04:39:13.981Z,1016.16
2018-06-25T04:40:14.058Z,1016.13
2018-06-25T04:41:12.316Z,1016.16
2018-06-25T04:42:12.292Z,1016.20
2018-06-25T04:43:13.517Z,1016.19
2018-06-25T04:44:12.902Z,1016.23
2018-06-25T04:45:13.554Z,1016.24
2018-06-25T04:46:13.814Z,1016.21
2018-06-25T04:47:13.995Z,1016.20
2018-06-25T04:48:13.495Z,1016.22
2018-06-25T04:49:13.523Z,1016.23
2018-06-25T04:50:13.553Z,1016.25
2018-06-25T04:51:13.479Z,1016.22
2018-06-25T04:52:13.230Z,1016.25
2018-06-25T04:53:13.540Z,1016.23
2018-06-25T04:54:13.991Z,1016.28
2018-06-25T04:55:13.365Z,1016.28
2018-06-25T04:56:13.234Z,1016.29
2018-06-25T04:57:12.351Z,1016.27
2018-06-25T04:58:13.529Z,1016.30
2018-06-25T04:59:12.313Z,1016.33
2018-06-25T05:00:13.533Z,1016.34
2018-06-25T05:01:14.026Z,1016.33
2018-06-25T05:02:13.492Z,1016.36
2018-06-25T05:03:14.032Z,1016.31
2018-06-25T05:04:13.342Z,1016.32
2018-06-25T05:05:13.743Z,1016.36
2018-06-25T05:06:13.094Z,1016.32
2018-06-25T05:07:13.498Z,1016.38
2018-06-25T05:08:13.246Z,1016.38
2018-06-25T05:09:13.999Z,1016.38
2018-06-25T05:10:13.538Z,1016.40
2018-06-25T05:11:12.210Z,1016.44
2018-06-25T05:12:13.835Z,1016.45
2018-06-25T05:13:13.567Z,1016.47
2018-06-25T05:14:14.042Z,1016.47
2018-06-25T05:15:13.541Z,1016.43
2018-06-25T05:16:13.537Z,1016.50
2018-06-25T05:17:12.258Z,1016.47
2018-06-25T05:18:13.063Z,1016.49
2018-06-25T05:19:16.743Z,1016.51
2018-06-25T05:20:12.160Z,1016.53
2018-06-25T05:21:12.177Z,1016.47
2018-06-25T05:22:13.988Z,1016.52
2018-06-25T05:23:14.052Z,1016.53
2018-06-25T05:24:12.784Z,1016.51
2018-06-25T05:25:13.726Z,1016.48
2018-06-25T05:26:13.147Z,1016.53
2018-06-25T05:27:14.042Z,1016.54
2018-06-25T05:28:13.336Z,1016.54
2018-06-25T05:29:13.443Z,1016.54
2018-06-25T05:30:13.559Z,1016.54
2018-06-25T05:31:12.175Z,1016.52
2018-06-25T05:32:13.589Z,1016.58
2018-06-25T05:33:13.537Z,1016.58
2018-06-25T05:34:13.300Z,1016.57
2018-06-25T05:35:12.999Z,1016.63
2018-06-25T05:36:13.341Z,1016.60
2018-06-25T05:37:12.157Z,1016.61
2018-06-25T05:38:14.044Z,1016.61
2018-06-25T05:39:14.039Z,1016.62
2018-06-25T05:40:13.349Z,1016.64
2018-06-25T05:41:12.871Z,1016.67
2018-06-25T05:42:12.137Z,1016.67
2018-06-25T05:43:13.546Z,1016.66
2018-06-25T05:44:12.149Z,1016.68
2018-06-25T05:45:12.158Z,1016.72
2018-06-25T05:46:14.051Z,1016.73
2018-06-25T05:47:12.429Z,1016.73
2018-06-25T05:48:13.355Z,1016.73
2018-06-25T05:49:12.807Z,1016.73
2018-06-25T05:50:13.539Z,1016.75
2018-06-25T05:51:13.553Z,1016.73
2018-06-25T05:52:12.160Z,1016.72
2018-06-25T05:53:13.055Z,1016.71
2018-06-25T05:54:13.769Z,1016.73
2018-06-25T05:55:13.029Z,1016.77
2018-06-25T05:56:12.136Z,1016.77
2018-06-25T05:57:12.173Z,1016.73
2018-06-25T05:58:12.111Z,1016.71
2018-06-25T05:59:13.576Z,1016.74
2018-06-25T06:00:14.009Z,1016.73
2018-06-25T06:01:13.559Z,1016.73
2018-06-25T06:02:12.314Z,1016.71
2018-06-25T06:03:12.154Z,1016.70
2018-06-25T06:04:12.124Z,1016.74
2018-06-25T06:05:12.165Z,1016.77
2018-06-25T06:06:12.257Z,1016.77
2018-06-25T06:07:12.308Z,1016.75
2018-06-25T06:09:12.238Z,1016.74
2018-06-25T06:10:13.517Z,1016.77
2018-06-25T06:11:13.452Z,1016.81
2018-06-25T06:12:13.514Z,1016.79
2018-06-25T06:13:12.131Z,1016.82
2018-06-25T06:14:13.559Z,1016.82
2018-06-25T06:15:12.158Z,1016.83
2018-06-25T06:16:12.234Z,1016.85
2018-06-25T06:17:13.336Z,1016.87
2018-06-25T06:18:12.120Z,1016.88
2018-06-25T06:19:13.060Z,1016.88
2018-06-25T06:20:13.113Z,1016.89
2018-06-25T06:21:13.498Z,1016.89
2018-06-25T06:22:13.021Z,1016.90
2018-06-25T06:23:13.572Z,1016.90
2018-06-25T06:24:12.074Z,1016.92
2018-06-25T06:25:12.099Z,1016.94
2018-06-25T06:26:12.252Z,1016.91
2018-06-25T06:27:14.976Z,1016.93
2018-06-25T06:28:12.066Z,1016.96
2018-06-25T06:29:12.192Z,1016.95
2018-06-25T06:30:13.470Z,1016.98
2018-06-25T06:31:13.075Z,1016.97
2018-06-25T06:32:13.864Z,1016.98
2018-06-25T06:33:12.161Z,1017.00
2018-06-25T06:34:13.942Z,1017.00
2018-06-25T06:35:12.820Z,1017.02
2018-06-25T06:36:15.984Z,1017.01
2018-06-25T06:37:13.088Z,1016.99
2018-06-25T06:38:13.070Z,1017.03
2018-06-25T06:39:12.060Z,1017.03
2018-06-25T06:40:13.031Z,1017.08
2018-06-25T06:41:13.077Z,1017.11
2018-06-25T06:42:12.074Z,1017.10
2018-06-25T06:43:13.879Z,1017.13
2018-06-25T06:44:16.006Z,1017.11
2018-06-25T06:45:12.198Z,1017.09
2018-06-25T06:46:13.091Z,1017.05
2018-06-25T06:47:12.193Z,1017.10
2018-06-25T06:48:13.626Z,1017.10
2018-06-25T06:49:13.028Z,1017.15
2018-06-25T06:50:13.078Z,1017.17
2018-06-25T06:51:13.542Z,1017.11
2018-06-25T06:52:12.158Z,1017.15
2018-06-25T06:53:13.103Z,1017.16
2018-06-25T06:54:13.069Z,1017.16
2018-06-25T06:55:13.074Z,1017.16
2018-06-25T06:56:13.281Z,1017.16
2018-06-25T06:57:13.079Z,1017.16
2018-06-25T06:58:13.293Z,1017.17
2018-06-25T06:59:13.545Z,1017.14
2018-06-25T07:00:13.540Z,1017.13
2018-06-25T07:01:15.031Z,1017.13
2018-06-25T07:02:13.061Z,1017.12
2018-06-25T07:03:13.534Z,1017.22
2018-06-25T07:04:13.523Z,1017.16
2018-06-25T07:05:13.861Z,1017.19
2018-06-25T07:06:15.525Z,1017.13
2018-06-25T07:07:13.527Z,1017.17
2018-06-25T07:08:13.530Z,1017.23
2018-06-25T07:09:13.601Z,1017.23
2018-06-25T07:10:13.624Z,1017.23
2018-06-25T07:11:13.828Z,1017.21
2018-06-25T07:12:14.097Z,1017.22
2018-06-25T07:13:13.612Z,1017.24
2018-06-25T07:14:13.609Z,1017.25
2018-06-25T07:15:13.533Z,1017.28
2018-06-25T07:16:13.525Z,1017.31
2018-06-25T07:17:13.528Z,1017.29
2018-06-25T07:18:15.937Z,1017.32
2018-06-25T07:19:13.638Z,1017.31
2018-06-25T07:20:13.593Z,1017.26
2018-06-25T07:21:13.908Z,1017.26
2018-06-25T07:22:13.605Z,1017.22
2018-06-25T07:23:15.087Z,1017.19
2018-06-25T07:24:13.865Z,1017.22
2018-06-25T07:25:13.607Z,1017.26
2018-06-25T07:26:13.882Z,1017.21
2018-06-25T07:27:15.147Z,1017.28
2018-06-25T07:28:13.540Z,1017.29
2018-06-25T07:29:13.627Z,1017.32
2018-06-25T07:30:13.536Z,1017.34
2018-06-25T07:31:13.543Z,1017.34
2018-06-25T07:32:13.875Z,1017.34
2018-06-25T07:33:13.499Z,1017.28
2018-06-25T07:34:13.866Z,1017.33
2018-06-25T07:35:13.965Z,1017.33
2018-06-25T07:36:14.049Z,1017.34
2018-06-25T07:37:13.633Z,1017.33
2018-06-25T07:38:13.868Z,1017.36
2018-06-25T07:39:13.737Z,1017.35
2018-06-25T07:40:13.626Z,1017.29
2018-06-25T07:41:13.903Z,1017.30
2018-06-25T07:42:13.599Z,1017.34
2018-06-25T07:43:13.582Z,1017.29
2018-06-25T07:44:13.626Z,1017.27
2018-06-25T07:45:13.624Z,1017.31
2018-06-25T07:46:13.945Z,1017.31
2018-06-25T07:47:13.666Z,1017.32
2018-06-25T07:48:13.637Z,1017.31
2018-06-25T07:49:13.623Z,1017.25
2018-06-25T07:50:13.621Z,1017.34
2018-06-25T07:51:13.960Z,1017.30
2018-06-25T07:52:13.670Z,1017.31
2018-06-25T07:53:14.024Z,1017.27
2018-06-25T07:54:13.547Z,1017.36
2018-06-25T07:55:28.050Z,1017.29
2018-06-25T07:56:13.552Z,1017.35
2018-06-25T07:57:13.588Z,1017.36
2018-06-25T07:58:13.545Z,1017.32
2018-06-25T07:59:15.152Z,1017.33
2018-06-25T08:00:13.544Z,1017.39
2018-06-25T08:01:13.540Z,1017.34
2018-06-25T08:02:15.115Z,1017.40
2018-06-25T08:03:13.335Z,1017.40
2018-06-25T08:04:13.357Z,1017.37
2018-06-25T08:05:13.624Z,1017.38
2018-06-25T08:06:13.332Z,1017.39
2018-06-25T08:07:13.938Z,1017.40
2018-06-25T08:08:13.562Z,1017.39
2018-06-25T08:09:13.598Z,1017.35
2018-06-25T08:10:14.173Z,1017.36
2018-06-25T08:11:14.107Z,1017.37
2018-06-25T08:12:13.426Z,1017.39
2018-06-25T08:13:14.066Z,1017.37
2018-06-25T08:14:13.544Z,1017.38
2018-06-25T08:15:13.595Z,1017.41
2018-06-25T08:16:13.823Z,1017.41
2018-06-25T08:17:13.625Z,1017.38
2018-06-25T08:18:13.053Z,1017.34
2018-06-25T08:19:13.655Z,1017.37
2018-06-25T08:20:13.559Z,1017.37
2018-06-25T08:21:13.789Z,1017.39
2018-06-25T08:22:15.129Z,1017.43
2018-06-25T08:23:13.560Z,1017.43
2018-06-25T08:24:13.557Z,1017.37
2018-06-25T08:25:13.925Z,1017.44
2018-06-25T08:26:13.646Z,1017.40
2018-06-25T08:27:13.401Z,1017.37
2018-06-25T08:28:13.629Z,1017.47
2018-06-25T08:29:13.644Z,1017.42
2018-06-25T08:30:12.060Z,1017.41
2018-06-25T08:31:14.034Z,1017.41
2018-06-25T08:32:13.740Z,1017.43
2018-06-25T08:33:13.456Z,1017.43
2018-06-25T08:34:13.645Z,1017.44
2018-06-25T08:35:14.021Z,1017.46
2018-06-25T08:36:12.984Z,1017.48
2018-06-25T08:37:13.626Z,1017.50
2018-06-25T08:38:13.392Z,1017.54
2018-06-25T08:39:14.065Z,1017.49
2018-06-25T08:40:13.958Z,1017.54
2018-06-25T08:41:13.626Z,1017.55
2018-06-25T08:42:13.411Z,1017.57
2018-06-25T08:43:13.564Z,1017.50
2018-06-25T08:44:13.561Z,1017.52
2018-06-25T08:45:13.664Z,1017.57
2018-06-25T08:46:13.404Z,1017.64
2018-06-25T08:47:13.712Z,1017.58
2018-06-25T08:48:13.916Z,1017.66
2018-06-25T08:49:13.579Z,1017.65
2018-06-25T08:50:13.936Z,1017.65
2018-06-25T08:51:13.605Z,1017.73
2018-06-25T08:52:13.573Z,1017.75
2018-06-25T08:53:14.559Z,1017.68
2018-06-25T08:54:13.922Z,1017.70
2018-06-25T08:55:15.774Z,1017.75
2018-06-25T08:56:13.947Z,1017.69
2018-06-25T08:57:13.625Z,1017.72
2018-06-25T08:58:13.604Z,1017.68
2018-06-25T08:59:13.644Z,1017.74
2018-06-25T09:00:13.619Z,1017.71
2018-06-25T09:01:13.648Z,1017.76
2018-06-25T09:02:13.455Z,1017.76
2018-06-25T09:03:13.607Z,1017.71
2018-06-25T09:04:13.947Z,1017.74
2018-06-25T09:05:13.586Z,1017.74
2018-06-25T09:06:13.571Z,1017.71
2018-06-25T09:07:14.679Z,1017.73
2018-06-25T09:08:13.656Z,1017.76
2018-06-25T09:09:13.945Z,1017.74
2018-06-25T09:10:13.693Z,1017.76
2018-06-25T09:11:13.684Z,1017.79
2018-06-25T09:12:13.337Z,1017.77
2018-06-25T09:13:13.651Z,1017.81
2018-06-25T09:14:13.577Z,1017.80
2018-06-25T09:15:13.696Z,1017.80
2018-06-25T09:16:13.675Z,1017.74
2018-06-25T09:17:13.116Z,1017.75
2018-06-25T09:18:13.574Z,1017.77
2018-06-25T09:19:16.056Z,1017.80
2018-06-25T09:20:13.984Z,1017.79
2018-06-25T09:21:13.599Z,1017.78
2018-06-25T09:22:14.047Z,1017.78
2018-06-25T09:23:13.619Z,1017.81
2018-06-25T09:24:13.630Z,1017.82
2018-06-25T09:25:13.610Z,1017.82
2018-06-25T09:26:13.651Z,1017.76
2018-06-25T09:27:13.613Z,1017.77
2018-06-25T09:28:13.675Z,1017.78
2018-06-25T09:29:13.689Z,1017.79
2018-06-25T09:30:13.686Z,1017.76
2018-06-25T09:31:13.579Z,1017.73
2018-06-25T09:32:13.585Z,1017.78
2018-06-25T09:33:13.513Z,1017.78
2018-06-25T09:34:13.398Z,1017.78
2018-06-25T09:35:13.616Z,1017.76
2018-06-25T09:36:13.581Z,1017.73
2018-06-25T09:37:13.939Z,1017.72
2018-06-25T09:38:13.945Z,1017.72
2018-06-25T09:39:13.591Z,1017.74
2018-06-25T09:40:15.590Z,1017.79
2018-06-25T09:41:13.649Z,1017.76
2018-06-25T09:42:13.976Z,1017.76
2018-06-25T09:43:14.101Z,1017.73
2018-06-25T09:44:13.968Z,1017.79
2018-06-25T09:45:13.334Z,1017.71
2018-06-25T09:46:13.406Z,1017.71
2018-06-25T09:47:13.393Z,1017.72
2018-06-25T09:48:13.704Z,1017.72
2018-06-25T09:49:14.189Z,1017.70
2018-06-25T09:50:13.664Z,1017.74
2018-06-25T09:51:14.047Z,1017.78
2018-06-25T09:52:13.620Z,1017.80
2018-06-25T09:53:13.676Z,1017.75
2018-06-25T09:54:15.646Z,1017.85
2018-06-25T09:55:13.631Z,1017.85
2018-06-25T09:56:16.167Z,1017.84
2018-06-25T09:57:14.164Z,1017.84
2018-06-25T09:58:13.964Z,1017.84
2018-06-25T09:59:13.993Z,1017.89
2018-06-25T10:00:13.695Z,1017.78
2018-06-25T10:01:13.683Z,1017.81
2018-06-25T10:02:13.684Z,1017.84
2018-06-25T10:03:14.068Z,1017.85
2018-06-25T10:04:13.575Z,1017.85
2018-06-25T10:05:13.601Z,1017.84
2018-06-25T10:06:13.704Z,1017.91
2018-06-25T10:07:13.996Z,1017.91
2018-06-25T10:08:14.131Z,1017.91
2018-06-25T10:09:13.547Z,1017.91
2018-06-25T10:10:13.732Z,1017.93
2018-06-25T10:11:13.671Z,1017.92
2018-06-25T10:12:13.677Z,1017.86
2018-06-25T10:13:14.169Z,1017.89
2018-06-25T10:14:13.651Z,1017.91
2018-06-25T10:15:14.176Z,1017.89
2018-06-25T10:16:14.048Z,1017.92
2018-06-25T10:17:14.177Z,1017.87
2018-06-25T10:18:13.599Z,1017.85
2018-06-25T10:19:15.597Z,1017.85
2018-06-25T10:20:13.637Z,1017.83
2018-06-25T10:21:14.051Z,1017.87
2018-06-25T10:22:13.748Z,1017.85
2018-06-25T10:23:13.649Z,1017.90
2018-06-25T10:24:14.022Z,1017.88
2018-06-25T10:25:12.427Z,1017.88
2018-06-25T10:26:14.185Z,1017.84
2018-06-25T10:27:13.962Z,1017.83
2018-06-25T10:28:13.840Z,1017.81
2018-06-25T10:29:13.984Z,1017.84
2018-06-25T10:30:15.615Z,1017.83
2018-06-25T10:31:13.839Z,1017.89
2018-06-25T10:32:14.605Z,1017.83
2018-06-25T10:33:14.033Z,1017.86
2018-06-25T10:34:13.613Z,1017.85
2018-06-25T10:35:13.973Z,1017.83
2018-06-25T10:36:14.060Z,1017.87
2018-06-25T10:37:13.705Z,1017.88
2018-06-25T10:38:13.667Z,1017.85
2018-06-25T10:39:14.121Z,1017.85
2018-06-25T10:40:14.033Z,1017.87
2018-06-25T10:41:13.659Z,1017.87
2018-06-25T10:42:13.743Z,1017.89
2018-06-25T10:43:13.966Z,1017.85
2018-06-25T10:44:15.715Z,1017.91
2018-06-25T10:45:15.877Z,1017.87
2018-06-25T10:46:13.955Z,1017.87
2018-06-25T10:47:13.663Z,1017.82
2018-06-25T10:48:13.645Z,1017.91
2018-06-25T10:49:14.063Z,1017.89
2018-06-25T10:50:13.481Z,1017.88
2018-06-25T10:51:13.698Z,1017.92
2018-06-25T10:52:13.613Z,1017.91
2018-06-25T10:53:13.650Z,1017.94
2018-06-25T10:54:13.667Z,1017.89
2018-06-25T10:55:14.052Z,1017.97
2018-06-25T10:56:16.537Z,1017.92
2018-06-25T10:57:13.731Z,1017.92
2018-06-25T10:58:15.192Z,1017.81
2018-06-25T10:59:15.628Z,1017.85
2018-06-25T11:00:14.321Z,1017.81
2018-06-25T11:01:14.263Z,1017.84
2018-06-25T11:02:15.661Z,1017.82
2018-06-25T11:03:14.173Z,1017.79
2018-06-25T11:04:13.659Z,1017.82
2018-06-25T11:05:13.830Z,1017.78
2018-06-25T11:06:14.155Z,1017.78
2018-06-25T11:07:14.257Z,1017.77
2018-06-25T11:08:16.046Z,1017.79
2018-06-25T11:09:15.680Z,1017.75
2018-06-25T11:10:14.147Z,1017.78
2018-06-25T11:12:46.897Z,1017.75
2018-06-25T11:13:46.809Z,1017.74
2018-06-25T11:15:40.451Z,1017.73
2018-06-25T11:16:40.951Z,1017.68
2018-06-25T11:18:35.174Z,1017.68
2018-06-25T11:19:35.132Z,1017.61
2018-06-25T11:20:35.194Z,1017.61
2018-06-25T11:21:56.189Z,1017.60
2018-06-25T11:22:35.229Z,1017.71
2018-06-25T11:23:35.180Z,1017.74
2018-06-25T11:24:35.206Z,1017.72
2018-06-25T11:25:34.928Z,1017.78
2018-06-25T11:26:35.285Z,1017.79
2018-06-25T11:27:35.302Z,1017.81
2018-06-25T11:28:34.997Z,1017.75
2018-06-25T11:29:34.645Z,1017.73
2018-06-25T11:30:35.223Z,1017.82
2018-06-25T11:31:36.471Z,1017.80
2018-06-25T11:32:34.978Z,1017.78
2018-06-25T11:33:34.989Z,1017.76
2018-06-25T11:34:35.200Z,1017.76
2018-06-25T11:35:35.096Z,1017.81
2018-06-25T11:36:55.731Z,1017.81
2018-06-25T11:37:33.649Z,1017.75
2018-06-25T11:38:34.911Z,1017.76
2018-06-25T11:39:35.214Z,1017.76
2018-06-25T11:40:35.702Z,1017.77
2018-06-25T11:41:35.267Z,1017.72
2018-06-25T11:42:35.143Z,1017.75
2018-06-25T11:43:49.816Z,1017.78
2018-06-25T11:44:35.226Z,1017.73
2018-06-25T11:45:35.693Z,1017.79
2018-06-25T11:46:35.012Z,1017.73
2018-06-25T11:47:35.195Z,1017.74
2018-06-25T11:48:35.194Z,1017.75
2018-06-25T11:49:36.511Z,1017.76
2018-06-25T11:50:35.247Z,1017.69
2018-06-25T11:51:35.187Z,1017.72
2018-06-25T11:52:35.191Z,1017.75
2018-06-25T11:53:35.188Z,1017.73
2018-06-25T11:54:35.512Z,1017.72
2018-06-25T11:55:35.098Z,1017.79
2018-06-25T11:56:55.362Z,1017.85
2018-06-25T11:57:41.399Z,1017.85
2018-06-25T11:58:35.248Z,1017.81
2018-06-25T11:59:34.914Z,1017.85
2018-06-25T12:00:34.735Z,1017.81
2018-06-25T12:01:35.555Z,1017.79
2018-06-25T12:02:35.679Z,1017.80
2018-06-25T12:03:36.688Z,1017.85
2018-06-25T12:04:35.256Z,1017.78
2018-06-25T12:05:35.182Z,1017.74
2018-06-25T12:07:49.475Z,1017.72
2018-06-25T12:08:49.471Z,1017.74
2018-06-25T12:10:43.547Z,1017.79
2018-06-25T12:11:43.672Z,1017.77